Time;durP1;ratioP1;P1;durP2;ratioP2;P2;SDS_P1;SDS_P2;PMS_P1;PMS_P2;Temp;Humidity;BMP_temperature;BMP_pressure;BME280_temperature;BME280_humidity;BME280_pressure;Samples;Min_cycle;Max_cycle;Signal;HPM_P1;HPM_P2
2023/09/10 00:02:26;;;;;;;26.20;23.80;;;23.40;99.90;;;;;;4982870;28;20108;-91
2023/09/10 00:05:17;;;;;;;26.17;23.77;;;23.30;99.90;;;;;;4976778;28;20039;-90
2023/09/10 00:07:45;;;;;;;26.00;23.60;;;23.10;99.90;;;;;;5013398;23;20578;-72
2023/09/10 00:10:11;;;;;;;26.63;24.23;;;22.90;99.90;;;;;;4978865;28;20066;-72
2023/09/10 00:12:37;;;;;;;24.77;22.55;;;23.60;99.90;;;;;;4992510;22;20058;-33
2023/09/10 00:15:04;;;;;;;25.58;23.17;;;23.90;99.90;;;;;;4992516;28;20034;-33
2023/09/10 00:17:29;;;;;;;26.10;23.67;;;24.10;99.90;;;;;;4988102;28;20103;-34
2023/09/10 00:19:55;;;;;;;25.40;23.10;;;23.10;99.90;;;;;;4993301;28;20026;-31
2023/09/10 00:22:21;;;;;;;25.95;23.55;;;22.90;99.90;;;;;;4991678;28;20181;-32
2023/09/10 00:24:46;;;;;;;26.65;24.25;;;23.10;99.90;;;;;;4992045;28;20527;-33
2023/09/10 00:27:13;;;;;;;27.60;25.08;;;22.90;99.90;;;;;;4993157;28;20031;-32
2023/09/10 00:29:39;;;;;;;29.40;26.63;;;23.10;99.90;;;;;;4992700;28;20049;-31
2023/09/10 00:32:05;;;;;;;29.92;27.13;;;23.20;99.90;;;;;;4991883;28;20420;-32
2023/09/10 00:34:32;;;;;;;29.10;26.30;;;23.10;99.90;;;;;;4991458;28;20121;-31
2023/09/10 00:36:59;;;;;;;29.15;26.25;;;22.70;99.90;;;;;;4992895;28;20030;-33
2023/09/10 00:39:24;;;;;;;28.85;26.08;;;22.90;99.90;;;;;;5013466;23;20053;-36
2023/09/10 00:41:54;;;;;;;28.95;26.17;;;23.20;99.90;;;;;;5027276;28;20036;-34
2023/09/10 00:44:20;;;;;;;29.92;26.92;;;23.10;99.90;;;;;;5006053;28;20501;-35
2023/09/10 00:46:47;;;;;;;30.08;27.05;;;22.80;99.90;;;;;;5006392;28;20121;-36
2023/09/10 00:49:13;;;;;;;31.48;28.55;;;23.10;99.90;;;;;;5011644;28;20601;-34
2023/09/10 00:51:39;;;;;;;29.65;26.83;;;23.30;99.90;;;;;;5011323;28;20034;-34
2023/09/10 00:54:05;;;;;;;31.23;28.25;;;23.80;99.90;;;;;;5011272;28;20040;-34
2023/09/10 00:56:31;;;;;;;31.83;28.83;;;23.10;99.90;;;;;;5011034;28;20450;-33
2023/09/10 00:58:57;;;;;;;30.00;27.17;;;23.30;99.90;;;;;;5010670;28;20092;-35
2023/09/10 01:01:23;;;;;;;29.98;27.08;;;23.10;99.90;;;;;;5010181;28;20052;-34
2023/09/10 01:03:49;;;;;;;30.75;27.75;;;22.70;99.90;;;;;;5012120;28;20026;-33
2023/09/10 01:06:15;;;;;;;30.35;27.35;;;22.90;99.90;;;;;;5010466;28;20564;-32
2023/09/10 01:08:42;;;;;;;28.95;26.25;;;23.70;99.90;;;;;;5011536;28;20112;-33
2023/09/10 01:11:33;;;;;;;30.20;27.20;;;22.90;99.90;;;;;;5007066;28;20042;-33
2023/09/10 01:14:28;;;;;;;30.65;27.63;;;22.90;99.90;;;;;;4992886;28;20473;-33
2023/09/10 01:17:01;;;;;;;30.13;27.27;;;22.80;99.90;;;;;;4989298;28;20045;-36
2023/09/10 01:20:07;;;;;;;28.33;25.50;;;23.40;99.90;;;;;;5008216;28;20042;-33
2023/09/10 01:23:11;;;;;;;30.17;27.15;;;22.60;99.90;;;;;;5000830;28;20042;-34
2023/09/10 01:25:37;;;;;;;29.60;26.73;;;22.50;99.90;;;;;;4998231;28;20456;-33
2023/09/10 01:28:03;;;;;;;26.85;24.35;;;22.80;99.90;;;;;;5010324;28;20038;-33
2023/09/10 01:30:30;;;;;;;26.52;23.98;;;23.20;99.90;;;;;;5010320;28;20620;-34
2023/09/10 01:33:09;;;;;;;25.50;23.00;;;22.90;99.90;;;;;;5010844;28;20034;-32
2023/09/10 01:35:48;;;;;;;25.58;23.08;;;23.10;99.90;;;;;;5010885;28;20543;-32
2023/09/10 01:38:26;;;;;;;24.30;21.85;;;22.70;99.90;;;;;;5010543;28;20540;-33
2023/09/10 01:41:06;;;;;;;25.70;23.08;;;22.70;99.90;;;;;;5005137;28;20038;-32
2023/09/10 01:43:32;;;;;;;24.85;22.55;;;22.80;99.90;;;;;;5009302;28;20405;-33
2023/09/10 01:45:58;;;;;;;25.67;23.23;;;22.60;99.90;;;;;;5011258;28;20041;-33
2023/09/10 01:48:29;;;;;;;24.27;21.98;;;22.70;99.90;;;;;;5011424;28;20046;-33
2023/09/10 01:50:54;;;;;;;24.65;22.35;;;22.80;99.90;;;;;;5010237;28;20116;-34
2023/09/10 01:53:20;;;;;;;25.65;23.23;;;22.50;99.90;;;;;;5005517;28;20114;-34
2023/09/10 01:55:46;;;;;;;25.73;23.02;;;22.80;99.90;;;;;;5010257;28;20110;-34
2023/09/10 01:58:13;;;;;;;27.55;24.77;;;22.70;99.90;;;;;;5009785;28;20450;-32
2023/09/10 02:00:39;;;;;;;27.75;24.95;;;22.80;99.90;;;;;;5011345;28;20046;-32
2023/09/10 02:03:05;;;;;;;28.48;25.77;;;23.00;99.90;;;;;;5010336;28;20038;-34
2023/09/10 02:05:31;;;;;;;28.60;25.83;;;22.80;99.90;;;;;;5004187;28;20034;-32
2023/09/10 02:07:57;;;;;;;25.52;22.90;;;22.70;99.90;;;;;;5003209;28;20125;-33
2023/09/10 02:10:23;;;;;;;27.20;24.50;;;23.10;99.90;;;;;;5006819;28;20053;-32
2023/09/10 02:12:49;;;;;;;27.90;25.20;;;22.60;99.90;;;;;;5003764;28;20041;-33
2023/09/10 02:15:17;;;;;;;27.23;24.48;;;22.50;99.90;;;;;;5011338;28;20030;-33
2023/09/10 02:17:42;;;;;;;26.67;24.08;;;22.50;99.90;;;;;;5008356;28;20070;-34
2023/09/10 02:20:09;;;;;;;27.75;25.05;;;23.10;99.90;;;;;;5003864;28;20433;-33
2023/09/10 02:22:39;;;;;;;26.63;23.92;;;22.80;99.90;;;;;;5005472;28;20046;-33
2023/09/10 02:25:06;;;;;;;26.95;24.25;;;22.50;99.90;;;;;;5004867;28;20034;-33
2023/09/10 02:27:32;;;;;;;27.75;24.98;;;23.00;99.90;;;;;;5008410;28;20092;-33
2023/09/10 02:29:58;;;;;;;27.70;25.00;;;22.60;99.90;;;;;;5009375;28;20042;-33
2023/09/10 02:32:25;;;;;;;28.40;25.55;;;22.80;99.90;;;;;;5005156;28;20061;-34
2023/09/10 02:34:53;;;;;;;27.27;24.50;;;22.70;99.90;;;;;;5004068;28;20164;-32
2023/09/10 02:37:20;;;;;;;25.15;22.75;;;22.60;99.90;;;;;;5004391;28;20061;-33
2023/09/10 02:39:45;;;;;;;23.90;21.58;;;22.90;99.90;;;;;;5008220;28;20137;-34
2023/09/10 02:42:11;;;;;;;24.95;22.48;;;22.60;99.90;;;;;;4999186;28;20113;-33
2023/09/10 02:44:37;;;;;;;23.05;20.80;;;22.50;99.90;;;;;;5009487;28;20732;-33
2023/09/10 02:47:03;;;;;;;22.40;20.35;;;22.60;99.90;;;;;;4986764;28;20501;-34
2023/09/10 02:49:28;;;;;;;20.80;18.80;;;22.60;99.90;;;;;;4998547;28;20464;-33
2023/09/10 02:51:54;;;;;;;20.30;18.30;;;22.50;99.90;;;;;;4998186;28;20485;-34
2023/09/10 02:54:21;;;;;;;20.05;18.15;;;22.30;99.90;;;;;;5003329;28;20120;-33
2023/09/10 02:56:47;;;;;;;19.65;17.85;;;22.50;99.90;;;;;;5010271;28;20064;-33
2023/09/10 02:59:25;;;;;;;18.38;16.73;;;22.40;99.90;;;;;;5010385;28;20054;-33
2023/09/10 03:01:54;;;;;;;18.20;16.48;;;22.40;99.90;;;;;;5008506;28;20059;-33
2023/09/10 03:04:20;;;;;;;18.63;16.92;;;22.40;99.90;;;;;;5007754;28;20038;-33
2023/09/10 03:06:48;;;;;;;19.25;17.45;;;22.30;99.90;;;;;;5002490;28;20038;-33
2023/09/10 03:09:14;;;;;;;17.38;15.88;;;22.50;99.90;;;;;;5009381;28;20045;-33
2023/09/10 03:11:41;;;;;;;17.25;15.65;;;22.40;99.90;;;;;;4998262;28;20037;-32
2023/09/10 03:14:08;;;;;;;15.50;14.15;;;22.40;99.90;;;;;;5010336;28;20582;-33
2023/09/10 03:16:35;;;;;;;16.27;14.75;;;22.60;99.90;;;;;;4996984;28;20126;-34
2023/09/10 03:19:01;;;;;;;15.65;14.10;;;22.20;99.90;;;;;;5003168;28;20049;-33
2023/09/10 03:21:27;;;;;;;15.88;14.40;;;22.40;99.90;;;;;;4998941;28;20074;-33
2023/09/10 03:23:56;;;;;;;15.20;13.90;;;22.10;99.90;;;;;;5004049;28;20050;-33
2023/09/10 03:26:22;;;;;;;14.82;13.43;;;22.40;99.90;;;;;;5008886;28;20042;-34
2023/09/10 03:28:47;;;;;;;15.25;13.85;;;21.40;99.90;;;;;;5009078;28;20612;-33
2023/09/10 03:31:13;;;;;;;14.80;13.40;;;22.50;99.90;;;;;;5010783;28;20038;-33
2023/09/10 03:33:40;;;;;;;14.85;13.45;;;22.20;99.90;;;;;;5010090;28;20062;-33
2023/09/10 03:36:09;;;;;;;13.88;12.50;;;22.20;99.90;;;;;;5005854;28;20042;-33
2023/09/10 03:38:35;;;;;;;13.68;12.38;;;22.10;99.90;;;;;;5010033;28;20056;-33
2023/09/10 03:41:01;;;;;;;13.60;12.38;;;22.40;99.90;;;;;;5010525;28;20038;-34
2023/09/10 03:43:26;;;;;;;13.57;12.43;;;22.60;99.90;;;;;;5000947;28;20053;-36
2023/09/10 03:45:52;;;;;;;13.02;11.82;;;22.10;99.90;;;;;;5009675;28;20037;-34
2023/09/10 03:48:18;;;;;;;13.52;12.23;;;22.20;99.90;;;;;;5010593;28;20038;-34
2023/09/10 03:50:43;;;;;;;12.88;11.77;;;22.20;99.90;;;;;;5013471;28;20042;-34
2023/09/10 03:53:09;;;;;;;12.45;11.15;;;22.30;99.90;;;;;;5013757;28;20053;-32
2023/09/10 03:55:35;;;;;;;12.93;11.73;;;22.20;99.90;;;;;;5008303;28;20045;-33
2023/09/10 03:58:01;;;;;;;14.25;12.90;;;22.30;99.90;;;;;;5012623;28;20386;-34
2023/09/10 04:00:28;;;;;;;13.70;12.48;;;22.20;99.90;;;;;;5009563;28;20045;-35
2023/09/10 04:02:54;;;;;;;12.65;11.55;;;21.30;99.90;;;;;;5009394;28;20056;-33
2023/09/10 04:05:19;;;;;;;13.90;12.60;;;22.00;99.90;;;;;;4998839;28;20038;-35
2023/09/10 04:07:45;;;;;;;14.05;12.75;;;22.10;99.90;;;;;;5010525;28;20038;-35
2023/09/10 04:10:11;;;;;;;14.00;12.70;;;22.30;99.90;;;;;;5008809;28;20029;-33
2023/09/10 04:12:37;;;;;;;14.73;13.32;;;22.20;99.90;;;;;;5009617;28;20788;-34
2023/09/10 04:15:04;;;;;;;15.18;13.77;;;22.40;99.90;;;;;;5007897;28;20041;-33
2023/09/10 04:17:30;;;;;;;15.18;13.68;;;22.00;99.90;;;;;;5003658;28;20471;-33
2023/09/10 04:20:00;;;;;;;12.65;11.45;;;22.30;99.90;;;;;;5005089;28;20042;-34
2023/09/10 04:22:28;;;;;;;12.15;11.05;;;21.70;99.90;;;;;;5007977;28;20037;-33
2023/09/10 04:24:54;;;;;;;11.60;10.50;;;21.90;99.90;;;;;;5005589;28;20049;-33
2023/09/10 04:27:19;;;;;;;11.68;10.50;;;22.20;99.90;;;;;;5012763;28;20030;-33
2023/09/10 04:29:45;;;;;;;10.70;9.70;;;21.80;99.90;;;;;;5007268;28;20045;-33
2023/09/10 04:32:10;;;;;;;11.38;10.38;;;22.00;99.90;;;;;;5003562;28;20038;-34
2023/09/10 04:34:36;;;;;;;10.85;9.95;;;21.20;99.90;;;;;;5008918;28;20124;-34
2023/09/10 04:37:04;;;;;;;11.00;10.00;;;21.50;99.90;;;;;;5007493;28;20184;-33
2023/09/10 04:39:30;;;;;;;10.35;9.45;;;21.10;99.90;;;;;;5012997;28;20042;-33
2023/09/10 04:41:56;;;;;;;11.13;10.07;;;21.80;99.90;;;;;;5007263;28;20515;-33
2023/09/10 04:44:22;;;;;;;10.50;9.50;;;21.20;99.90;;;;;;5012988;28;20099;-33
2023/09/10 04:46:48;;;;;;;10.73;9.73;;;21.70;99.90;;;;;;5010277;28;20095;-33
2023/09/10 04:49:13;;;;;;;9.70;8.88;;;21.70;99.90;;;;;;5009101;28;20461;-34
2023/09/10 04:51:39;;;;;;;10.48;9.52;;;21.20;99.90;;;;;;5008990;28;20408;-33
2023/09/10 04:54:04;;;;;;;10.48;9.57;;;21.90;99.90;;;;;;5009864;28;20096;-33
2023/09/10 04:56:30;;;;;;;9.68;8.77;;;21.30;99.90;;;;;;5005652;28;20124;-33
2023/09/10 04:58:56;;;;;;;9.70;8.80;;;22.20;99.90;;;;;;5002892;28;20324;-33
2023/09/10 05:01:22;;;;;;;10.10;9.20;;;22.00;99.90;;;;;;4985846;28;20049;-33
2023/09/10 05:03:47;;;;;;;11.02;10.02;;;21.00;99.90;;;;;;5010790;28;20108;-33
2023/09/10 05:06:13;;;;;;;10.82;9.80;;;21.90;99.90;;;;;;5008007;28;20493;-33
2023/09/10 05:08:39;;;;;;;11.20;10.10;;;21.70;99.90;;;;;;5006479;28;20034;-33
2023/09/10 05:11:04;;;;;;;11.30;10.20;;;21.60;99.90;;;;;;4998222;28;20041;-33
2023/09/10 05:13:30;;;;;;;11.32;10.30;;;22.20;99.90;;;;;;5002756;28;20039;-34
2023/09/10 05:15:57;;;;;;;11.80;10.70;;;21.80;99.90;;;;;;5009746;28;20125;-33
2023/09/10 05:18:26;;;;;;;10.63;9.52;;;22.00;99.90;;;;;;4989021;28;20473;-32
2023/09/10 05:20:53;;;;;;;10.70;9.70;;;22.00;99.90;;;;;;4989074;28;20041;-34
2023/09/10 05:23:22;;;;;;;10.95;9.93;;;21.80;99.90;;;;;;5012185;28;20096;-33
2023/09/10 05:25:49;;;;;;;12.45;11.25;;;21.70;99.90;;;;;;5011769;28;20038;-32
2023/09/10 05:28:15;;;;;;;11.20;10.10;;;22.10;99.90;;;;;;5012764;28;20065;-33
2023/09/10 05:30:40;;;;;;;11.30;10.30;;;21.80;99.90;;;;;;5012309;28;20509;-34
2023/09/10 05:33:06;;;;;;;11.10;10.10;;;22.00;99.90;;;;;;5010604;28;20072;-33
2023/09/10 05:35:32;;;;;;;10.23;9.23;;;21.30;99.90;;;;;;5007936;28;20117;-34
2023/09/10 05:37:58;;;;;;;11.00;10.00;;;22.00;99.90;;;;;;5003351;28;20519;-32
2023/09/10 05:40:25;;;;;;;11.52;10.43;;;21.80;99.90;;;;;;5011826;28;20034;-33
2023/09/10 05:42:51;;;;;;;10.90;9.90;;;22.00;99.90;;;;;;5003379;28;20045;-32
2023/09/10 05:45:16;;;;;;;10.43;9.43;;;21.60;99.90;;;;;;4993953;28;20374;-33
2023/09/10 05:47:42;;;;;;;10.93;9.80;;;21.80;99.90;;;;;;5007560;28;20576;-34
2023/09/10 05:50:08;;;;;;;11.25;10.10;;;22.00;99.90;;;;;;5003834;28;20042;-32
2023/09/10 05:52:34;;;;;;;11.52;10.40;;;21.90;99.90;;;;;;5002861;28;20088;-33
2023/09/10 05:54:59;;;;;;;12.18;10.95;;;21.80;99.90;;;;;;5008307;28;20141;-33
2023/09/10 05:57:25;;;;;;;12.45;11.23;;;21.90;99.90;;;;;;5002271;28;20057;-34
2023/09/10 05:59:51;;;;;;;13.15;11.85;;;21.60;99.90;;;;;;5002717;28;20042;-33
2023/09/10 06:02:16;;;;;;;14.45;13.05;;;21.80;99.90;;;;;;5009401;28;20046;-33
2023/09/10 06:04:42;;;;;;;15.77;14.27;;;22.00;99.90;;;;;;5007469;28;20390;-34
2023/09/10 06:07:08;;;;;;;16.52;14.82;;;21.70;99.90;;;;;;5005991;28;20096;-34
2023/09/10 06:09:33;;;;;;;18.35;16.65;;;20.80;99.90;;;;;;5009572;28;20057;-33
2023/09/10 06:12:02;;;;;;;19.55;17.42;;;21.90;99.90;;;;;;4998684;28;20049;-33
2023/09/10 06:14:30;;;;;;;20.48;18.40;;;21.90;99.90;;;;;;5014745;28;20045;-33
2023/09/10 06:16:58;;;;;;;22.02;19.67;;;21.80;1.00;;;;;;5004094;28;20048;-33
2023/09/10 06:19:24;;;;;;;21.27;19.08;;;21.80;99.90;;;;;;5010467;28;20412;-39
2023/09/10 06:21:49;;;;;;;21.95;19.65;;;21.90;1.00;;;;;;5007559;28;20046;-38
2023/09/10 06:24:15;;;;;;;21.65;19.35;;;22.20;1.00;;;;;;5006742;28;20509;-39
2023/09/10 06:26:41;;;;;;;22.52;19.92;;;21.90;1.00;;;;;;5009295;28;20505;-37
2023/09/10 06:29:07;;;;;;;22.85;19.88;;;21.90;1.00;;;;;;5004634;28;20120;-39
2023/09/10 06:31:33;;;;;;;21.52;19.35;;;21.70;1.00;;;;;;5009572;28;20169;-37
2023/09/10 06:33:58;;;;;;;21.95;19.60;;;21.10;1.00;;;;;;5009349;28;20052;-39
2023/09/10 06:36:24;;;;;;;22.38;20.08;;;22.00;1.00;;;;;;5003597;28;20068;-39
2023/09/10 06:38:50;;;;;;;23.27;20.98;;;22.10;1.00;;;;;;5008164;28;20065;-36
2023/09/10 06:41:16;;;;;;;23.58;20.45;;;21.60;1.00;;;;;;5005863;28;20054;-38
2023/09/10 06:43:42;;;;;;;22.38;19.98;;;22.00;1.00;;;;;;5007151;28;20451;-38
2023/09/10 06:46:08;;;;;;;22.80;20.30;;;22.20;1.00;;;;;;5007984;28;20083;-41
2023/09/10 06:48:33;;;;;;;26.48;19.27;;;22.20;1.00;;;;;;5004479;28;20065;-38
2023/09/10 06:51:01;;;;;;;20.92;18.67;;;22.00;1.00;;;;;;5001894;28;20168;-41
2023/09/10 06:53:36;;;;;;;24.65;20.15;;;22.10;1.00;;;;;;5010378;28;20045;-36
2023/09/10 06:56:01;;;;;;;22.10;16.00;;;21.90;1.00;;;;;;5003347;28;20420;-39
2023/09/10 06:58:27;;;;;;;18.75;10.05;;;22.10;1.00;;;;;;5010481;28;20034;-38
2023/09/10 07:00:52;;;;;;;15.18;9.57;;;22.10;1.00;;;;;;5003778;28;20037;-39
2023/09/10 07:03:18;;;;;;;17.05;14.55;;;22.20;1.00;;;;;;5009362;28;20034;-37
2023/09/10 07:05:44;;;;;;;17.92;15.90;;;22.10;1.00;;;;;;5009749;28;20036;-39
2023/09/10 07:08:11;;;;;;;19.83;16.13;;;22.30;1.00;;;;;;5007077;28;20030;-39
2023/09/10 07:10:38;;;;;;;24.80;16.60;;;22.30;1.00;;;;;;5005006;28;20034;-41
2023/09/10 07:13:05;;;;;;;20.65;15.65;;;22.30;1.00;;;;;;5006492;28;20050;-37
2023/09/10 07:15:31;;;;;;;20.08;17.92;;;22.20;1.00;;;;;;5009531;28;20033;-39
2023/09/10 07:17:57;;;;;;;20.67;16.08;;;22.50;1.00;;;;;;5009335;28;20034;-40
2023/09/10 07:20:23;;;;;;;19.70;14.60;;;22.40;1.00;;;;;;5006171;28;20403;-38
2023/09/10 07:22:48;;;;;;;18.00;15.13;;;22.50;1.00;;;;;;4986760;28;20382;-39
2023/09/10 07:25:14;;;;;;;18.58;14.40;;;22.50;1.00;;;;;;5003193;28;20046;-36
2023/09/10 07:27:39;;;;;;;20.17;15.77;;;22.50;1.00;;;;;;5009386;28;20486;-38
2023/09/10 07:30:06;;;;;;;19.05;15.88;;;22.50;1.00;;;;;;5006499;28;20064;-36
2023/09/10 07:32:32;;;;;;;21.65;17.10;;;22.70;1.00;;;;;;5005305;28;20389;-37
2023/09/10 07:34:57;;;;;;;13.60;9.30;;;22.40;1.00;;;;;;4999128;28;20046;-36
2023/09/10 07:37:23;;;;;;;15.65;10.98;;;22.60;1.00;;;;;;5004005;28;20083;-37
2023/09/10 07:39:48;;;;;;;14.20;9.40;;;22.70;1.00;;;;;;5009528;28;20038;-37
2023/09/10 07:42:14;;;;;;;13.43;8.40;;;22.50;1.00;;;;;;5003995;28;20038;-39
2023/09/10 07:44:41;;;;;;;14.98;8.98;;;22.40;1.00;;;;;;5003522;28;20037;-36
2023/09/10 07:47:07;;;;;;;13.25;8.82;;;22.70;1.00;;;;;;5005047;28;20049;-40
2023/09/10 07:49:33;;;;;;;10.23;7.85;;;22.60;1.00;;;;;;5004873;28;20034;-39
2023/09/10 07:51:58;;;;;;;11.32;8.25;;;22.70;1.00;;;;;;5002053;28;20590;-40
2023/09/10 07:54:24;;;;;;;13.02;8.02;;;22.80;1.00;;;;;;5000415;28;20037;-39
2023/09/10 07:56:50;;;;;;;14.32;8.48;;;22.90;1.00;;;;;;5005477;28;20037;-39
2023/09/10 07:59:20;;;;;;;12.40;8.68;;;22.90;1.00;;;;;;5009033;28;20042;-36
2023/09/10 08:01:45;;;;;;;11.93;7.75;;;22.50;1.00;;;;;;5002951;28;20408;-39
2023/09/10 08:04:11;;;;;;;10.13;7.93;;;22.70;1.00;;;;;;5003620;28;20033;-36
2023/09/10 08:06:37;;;;;;;11.45;8.45;;;22.70;1.00;;;;;;5005695;28;20049;-39
2023/09/10 08:09:03;;;;;;;11.57;8.63;;;22.70;1.00;;;;;;5004290;28;20046;-38
2023/09/10 08:11:29;;;;;;;11.48;9.70;;;22.70;1.00;;;;;;5007246;28;20145;-36
2023/09/10 08:13:54;;;;;;;13.02;10.02;;;23.00;1.00;;;;;;5003589;28;20033;-36
2023/09/10 08:16:20;;;;;;;12.90;10.40;;;22.40;1.00;;;;;;5007380;28;20045;-40
2023/09/10 08:18:46;;;;;;;11.43;9.93;;;22.90;1.00;;;;;;5004472;28;20029;-38
2023/09/10 08:21:12;;;;;;;12.52;10.30;;;22.70;1.00;;;;;;5004905;28;20509;-39
2023/09/10 08:23:37;;;;;;;13.00;10.55;;;22.80;1.00;;;;;;4988535;28;20066;-36
2023/09/10 08:26:04;;;;;;;13.18;9.63;;;23.10;1.00;;;;;;5003561;28;20069;-39
2023/09/10 08:28:30;;;;;;;10.38;9.25;;;22.50;1.00;;;;;;5005897;28;20034;-37
2023/09/10 08:30:56;;;;;;;12.35;8.95;;;23.00;1.00;;;;;;5007300;28;20410;-39
2023/09/10 08:33:24;;;;;;;10.88;8.50;;;23.00;1.00;;;;;;5006392;28;20441;-39
2023/09/10 08:35:51;;;;;;;9.77;8.40;;;22.90;1.00;;;;;;5011190;28;20112;-39
2023/09/10 08:38:17;;;;;;;10.45;8.15;;;22.90;1.00;;;;;;5010513;28;20053;-38
2023/09/10 08:40:57;;;;;;;9.43;7.90;;;23.00;1.00;;;;;;5004320;28;20397;-39
2023/09/10 08:43:53;;;;;;;10.73;8.18;;;22.90;1.00;;;;;;5005074;28;20173;-37
2023/09/10 08:46:22;;;;;;;9.77;7.72;;;22.50;1.00;;;;;;5003494;28;20045;-39
2023/09/10 08:48:51;;;;;;;9.10;7.38;;;23.90;1.00;;;;;;5000528;28;20034;-36
2023/09/10 08:51:17;;;;;;;9.82;7.75;;;23.20;1.00;;;;;;5002324;28;20041;-38
2023/09/10 08:54:02;;;;;;;9.70;7.63;;;22.90;1.00;;;;;;5004875;28;20041;-38
2023/09/10 08:56:28;;;;;;;9.32;7.95;;;22.90;1.00;;;;;;4994753;28;20505;-38
2023/09/10 08:58:58;;;;;;;10.27;8.70;;;22.80;1.00;;;;;;4995374;28;20079;-37
2023/09/10 09:01:26;;;;;;;10.00;8.30;;;22.80;1.00;;;;;;5000486;28;20493;-39
2023/09/10 09:03:54;;;;;;;11.23;8.38;;;23.00;1.00;;;;;;4998179;28;20038;-38
2023/09/10 09:06:27;;;;;;;10.27;8.80;;;24.00;1.00;;;;;;4992638;28;20461;-36
2023/09/10 09:08:56;;;;;;;11.40;8.68;;;22.90;1.00;;;;;;4997247;28;20226;-35
2023/09/10 09:11:34;;;;;;;11.68;9.90;;;23.70;1.00;;;;;;4994568;28;20499;-38
2023/09/10 09:14:03;;;;;;;10.88;9.13;;;22.90;1.00;;;;;;4995367;28;20066;-38
2023/09/10 09:16:30;;;;;;;10.40;9.18;;;22.10;1.00;;;;;;4999060;28;20164;-37
2023/09/10 09:18:57;;;;;;;11.30;9.15;;;23.10;1.00;;;;;;4995760;28;20050;-40
2023/09/10 09:21:24;;;;;;;12.23;8.77;;;23.60;1.00;;;;;;4999827;28;20413;-39
2023/09/10 09:24:01;;;;;;;10.93;8.23;;;22.60;1.00;;;;;;5001182;28;20493;-37
2023/09/10 09:26:28;;;;;;;10.05;8.30;;;22.90;1.00;;;;;;4997729;28;20053;-38
2023/09/10 09:28:58;;;;;;;10.57;7.85;;;22.80;1.00;;;;;;5001261;28;20069;-37
2023/09/10 09:31:24;;;;;;;11.70;8.88;;;23.30;1.00;;;;;;5002358;28;20046;-39
2023/09/10 09:33:51;;;;;;;10.90;9.07;;;23.90;1.00;;;;;;4994804;28;20085;-37
2023/09/10 09:36:16;;;;;;;10.38;7.90;;;23.90;1.00;;;;;;4995835;28;20136;-38
2023/09/10 09:39:07;;;;;;;9.98;7.65;;;23.40;1.00;;;;;;4995087;28;20421;-38
2023/09/10 09:41:38;;;;;;;12.20;7.85;;;23.40;1.00;;;;;;4994681;28;20043;-35
2023/09/10 09:44:05;;;;;;;10.80;8.30;;;24.10;1.00;;;;;;4991781;28;20030;-38
2023/09/10 09:46:34;;;;;;;11.05;9.00;;;23.20;1.00;;;;;;5002182;28;20049;-39
2023/09/10 09:49:08;;;;;;;10.35;8.27;;;23.40;1.00;;;;;;4995140;28;20133;-39
2023/09/10 09:51:34;;;;;;;11.60;9.07;;;23.90;1.00;;;;;;4992653;28;20027;-37
2023/09/10 09:54:01;;;;;;;12.48;10.45;;;24.30;1.00;;;;;;5001451;28;20053;-39
2023/09/10 09:56:27;;;;;;;12.68;9.45;;;23.30;1.00;;;;;;4996723;28;20030;-39
2023/09/10 09:58:57;;;;;;;13.52;9.43;;;23.40;1.00;;;;;;5000092;28;20038;-38
2023/09/10 10:01:23;;;;;;;12.35;9.60;;;22.90;1.00;;;;;;4994701;28;20497;-38
2023/09/10 10:03:52;;;;;;;9.88;8.45;;;23.10;1.00;;;;;;5002436;28;20041;-38
2023/09/10 10:06:19;;;;;;;10.80;8.63;;;23.10;1.00;;;;;;5001444;28;20046;-38
2023/09/10 10:08:51;;;;;;;10.35;7.82;;;23.20;1.00;;;;;;5000223;28;20493;-38
2023/09/10 10:11:31;;;;;;;11.25;8.02;;;23.50;3.30;;;;;;5006978;28;20052;-38
2023/09/10 10:14:02;;;;;;;8.25;7.15;;;23.50;6.30;;;;;;4999021;28;20077;-36
2023/09/10 10:16:29;;;;;;;8.65;6.70;;;23.80;7.80;;;;;;4985789;28;20041;-39
2023/09/10 10:18:55;;;;;;;10.90;7.15;;;23.60;9.70;;;;;;4990105;28;20046;-39
2023/09/10 10:21:25;;;;;;;8.48;7.20;;;23.70;11.50;;;;;;4997656;28;20060;-36
2023/09/10 10:23:56;;;;;;;9.20;7.07;;;24.10;14.10;;;;;;4990595;28;20812;-39
2023/09/10 10:26:28;;;;;;;8.52;6.80;;;23.40;14.80;;;;;;4995923;28;20045;-37
2023/09/10 10:28:55;;;;;;;8.20;6.90;;;23.20;12.90;;;;;;4997415;28;20030;-37
2023/09/10 10:31:29;;;;;;;8.30;6.53;;;23.60;5.50;;;;;;4997709;28;20049;-39
2023/09/10 10:34:00;;;;;;;;;;;23.00;14.90;;;;;;4994693;28;20045;-39
2023/09/10 10:36:53;;;;;;;8.55;6.45;;;23.60;2.70;;;;;;4992272;28;20310;-39
2023/09/10 10:39:26;;;;;;;9.52;6.28;;;23.30;14.40;;;;;;4994590;28;20077;-36
2023/09/10 10:41:55;;;;;;;8.52;6.60;;;23.20;15.50;;;;;;4996010;28;20401;-39
2023/09/10 10:44:37;;;;;;;8.35;6.68;;;23.60;25.70;;;;;;4994476;28;20038;-36
2023/09/10 10:47:17;;;;;;;8.75;6.60;;;23.40;21.00;;;;;;4997634;28;20030;-38
2023/09/10 10:49:56;;;;;;;8.80;7.03;;;23.80;22.80;;;;;;4990985;28;20045;-37
2023/09/10 10:52:30;;;;;;;9.45;7.10;;;24.20;4.40;;;;;;5000126;28;20045;-39
2023/09/10 10:54:56;;;;;;;8.65;7.07;;;24.30;23.90;;;;;;4998045;28;20496;-39
2023/09/10 10:57:24;;;;;;;8.48;6.75;;;24.20;25.60;;;;;;5001844;28;20125;-38
2023/09/10 10:59:50;;;;;;;8.55;6.40;;;23.40;29.20;;;;;;5001489;28;20073;-39
2023/09/10 11:02:23;;;;;;;8.20;6.25;;;24.40;31.30;;;;;;4997580;28;20580;-38
2023/09/10 11:04:57;;;;;;;9.60;6.93;;;25.30;22.50;;;;;;4999947;28;20038;-36
2023/09/10 11:07:23;;;;;;;;;;;24.40;40.70;;;;;;4994630;28;20034;-39
2023/09/10 11:09:51;;;;;;;8.35;7.05;;;23.10;21.70;;;;;;5003990;28;19918;-39
2023/09/10 11:12:16;;;;;;;8.75;6.82;;;21.40;39.70;;;;;;4999721;28;20408;-37
2023/09/10 11:15:03;;;;;;;9.85;7.32;;;23.30;46.30;;;;;;4995649;28;20033;-38
2023/09/10 11:17:34;;;;;;;8.50;7.05;;;23.30;65.20;;;;;;5003771;28;20045;-36
2023/09/10 11:20:00;;;;;;;9.38;7.00;;;23.60;85.70;;;;;;5003626;28;20121;-38
2023/09/10 11:22:27;;;;;;;9.18;7.43;;;23.70;96.30;;;;;;5004544;28;20124;-39
2023/09/10 11:25:03;;;;;;;9.57;7.22;;;23.40;99.90;;;;;;5003128;28;20042;-39
2023/09/10 11:27:30;;;;;;;8.23;6.50;;;23.40;99.90;;;;;;4998412;28;20044;-36
2023/09/10 11:30:11;;;;;;;8.73;7.40;;;23.50;99.90;;;;;;5007550;28;20041;-38
2023/09/10 11:32:37;;;;;;;9.07;7.28;;;23.30;99.90;;;;;;4999666;28;20493;-39
2023/09/10 11:35:17;;;;;;;9.32;7.35;;;23.20;99.90;;;;;;4997352;28;20057;-38
2023/09/10 11:37:47;;;;;;;10.00;7.82;;;24.20;99.90;;;;;;5004671;28;20046;-38
2023/09/10 11:40:21;;;;;;;9.15;7.55;;;23.40;99.90;;;;;;5006757;28;20460;-36
2023/09/10 11:42:51;;;;;;;9.55;7.35;;;24.50;99.90;;;;;;5007281;28;20045;-38
2023/09/10 11:45:21;;;;;;;8.60;6.85;;;23.70;99.90;;;;;;5005701;28;20046;-37
2023/09/10 11:47:49;;;;;;;8.88;7.03;;;23.30;99.90;;;;;;4999667;28;20042;-39
2023/09/10 11:50:24;;;;;;;7.90;7.10;;;23.30;99.90;;;;;;4996064;28;20113;-39
2023/09/10 11:52:49;;;;;;;8.88;6.63;;;24.20;99.90;;;;;;4995131;28;20117;-39
2023/09/10 11:55:15;;;;;;;9.07;7.22;;;23.80;99.90;;;;;;5001615;28;20121;-38
2023/09/10 11:57:41;;;;;;;9.25;7.40;;;24.50;99.90;;;;;;5004622;28;20042;-39
2023/09/10 12:00:13;;;;;;;8.90;7.43;;;23.60;99.90;;;;;;5001689;28;20088;-39
2023/09/10 12:02:40;;;;;;;9.80;8.05;;;23.70;99.90;;;;;;5004964;28;20046;-39
2023/09/10 12:05:08;;;;;;;8.02;6.80;;;23.40;99.90;;;;;;5004915;28;20038;-39
2023/09/10 12:07:34;;;;;;;9.52;6.88;;;23.70;99.90;;;;;;5007050;28;20052;-39
2023/09/10 12:10:00;;;;;;;8.13;6.55;;;24.30;99.90;;;;;;4999804;28;20464;-39
2023/09/10 12:12:31;;;;;;;10.93;6.65;;;24.60;99.90;;;;;;5009632;28;20088;-39
2023/09/10 12:14:58;;;;;;;8.35;6.90;;;23.50;99.90;;;;;;4998875;28;20096;-39
2023/09/10 12:17:24;;;;;;;7.95;6.72;;;23.80;99.90;;;;;;5005423;28;20060;-39
2023/09/10 12:19:50;;;;;;;8.60;7.40;;;23.90;99.90;;;;;;5003876;28;20038;-39
2023/09/10 12:22:19;;;;;;;8.60;7.45;;;23.50;99.90;;;;;;5001101;28;20041;-39
2023/09/10 12:24:45;;;;;;;8.02;6.68;;;23.50;99.90;;;;;;5002196;28;20052;-37
2023/09/10 12:27:13;;;;;;;10.07;7.95;;;23.60;99.90;;;;;;5001110;28;20113;-38
2023/09/10 12:29:40;;;;;;;8.32;7.45;;;23.70;99.90;;;;;;5004230;28;20050;-38
2023/09/10 12:32:11;;;;;;;9.50;7.13;;;23.70;99.90;;;;;;5006343;28;20117;-38
2023/09/10 12:34:39;;;;;;;8.93;7.45;;;24.20;99.90;;;;;;5008243;28;20116;-38
2023/09/10 12:37:13;;;;;;;9.50;7.35;;;23.50;99.90;;;;;;5000965;28;20042;-38
2023/09/10 12:39:41;;;;;;;9.48;7.60;;;24.90;99.90;;;;;;5000590;28;20108;-38
2023/09/10 12:42:07;;;;;;;8.38;6.70;;;24.10;99.90;;;;;;5000121;28;20050;-38
2023/09/10 12:44:39;;;;;;;7.45;6.25;;;23.50;99.90;;;;;;4999766;28;20097;-37